createdAt,value
2019-01-12T00:00:36.841Z,99632.70
2019-01-12T00:03:08.846Z,99630.50
2019-01-12T00:05:39.039Z,99631.70
2019-01-12T00:08:09.393Z,99630.39
2019-01-12T00:10:39.883Z,99633.05
2019-01-12T00:13:10.102Z,99639.98
2019-01-12T00:15:40.341Z,99642.16
2019-01-12T00:18:10.972Z,99643.50
2019-01-12T00:20:41.208Z,99639.55
2019-01-12T00:23:11.545Z,99631.25
2019-01-12T00:25:41.863Z,99633.88
2019-01-12T00:28:12.144Z,99625.91
2019-01-12T00:30:43.313Z,99625.82
2019-01-12T00:33:14.584Z,99624.96
2019-01-12T00:35:44.788Z,99628.53
2019-01-12T00:38:15.060Z,99629.48
2019-01-12T00:40:45.427Z,99625.50
2019-01-12T00:43:16.751Z,99629.39
2019-01-12T00:45:47.056Z,99632.84
2019-01-12T00:48:17.282Z,99631.09
2019-01-12T00:50:47.590Z,99630.69
2019-01-12T00:53:17.869Z,99629.45
2019-01-12T00:55:48.100Z,99636.03
2019-01-12T00:58:18.543Z,99632.94
2019-01-12T01:00:48.800Z,99634.20
2019-01-12T01:03:19.040Z,99641.62
2019-01-12T01:05:49.304Z,99641.62
2019-01-12T01:08:19.846Z,99642.99
2019-01-12T01:10:50.066Z,99639.06
2019-01-12T01:13:20.602Z,99646.56
2019-01-12T01:15:50.818Z,99650.16
2019-01-12T01:18:21.227Z,99646.69
2019-01-12T01:20:51.439Z,99643.17
2019-01-12T01:23:21.722Z,99648.84
2019-01-12T01:25:52.009Z,99647.15
2019-01-12T01:28:22.171Z,99651.12
2019-01-12T01:30:52.907Z,99653.75
2019-01-12T01:33:27.908Z,99650.23
2019-01-12T01:35:55.360Z,99647.50
2019-01-12T01:38:25.608Z,99650.52
2019-01-12T01:40:55.894Z,99656.95
2019-01-12T01:43:26.179Z,99649.48
2019-01-12T01:45:58.168Z,99650.70
2019-01-12T01:48:28.375Z,99646.59
2019-01-12T01:50:58.621Z,99649.22
2019-01-12T01:53:28.844Z,99648.39
2019-01-12T01:55:59.075Z,99659.48
2019-01-12T01:58:29.355Z,99652.91
2019-01-12T02:00:59.619Z,99652.02
2019-01-12T02:03:29.883Z,99651.08
2019-01-12T02:06:01.022Z,99655.88
2019-01-12T02:08:31.263Z,99649.77
2019-01-12T02:11:01.528Z,99646.19
2019-01-12T02:13:31.807Z,99648.44
2019-01-12T02:16:02.401Z,99645.83
2019-01-12T02:18:32.656Z,99656.77
2019-01-12T02:21:03.228Z,99653.76
2019-01-12T02:23:33.410Z,99652.42
2019-01-12T02:26:03.678Z,99650.19
2019-01-12T02:28:33.968Z,99647.06
2019-01-12T02:31:04.380Z,99646.11
2019-01-12T02:33:34.604Z,99642.16
2019-01-12T02:36:04.904Z,99643.87
2019-01-12T02:38:35.159Z,99640.75
2019-01-12T02:41:05.727Z,99632.02
2019-01-12T02:43:36.026Z,99637.75
2019-01-12T02:46:06.294Z,99636.41
2019-01-12T02:48:36.546Z,99637.28
2019-01-12T02:51:06.879Z,99630.70
2019-01-12T02:53:37.137Z,99633.34
2019-01-12T02:56:07.381Z,99634.20
2019-01-12T02:58:37.662Z,99631.56
2019-01-12T03:01:07.937Z,99633.34
2019-01-12T03:03:38.293Z,99632.45
2019-01-12T03:06:08.696Z,99627.61
2019-01-12T03:08:39.049Z,99630.70
2019-01-12T03:11:09.340Z,99627.23
2019-01-12T03:13:39.996Z,99625.50
2019-01-12T03:16:10.280Z,99622.91
2019-01-12T03:18:40.768Z,99622.05
2019-01-12T03:21:11.395Z,99619.40
2019-01-12T03:23:41.757Z,99615.91
2019-01-12T03:26:11.985Z,99618.48
2019-01-12T03:28:42.191Z,99614.08
2019-01-12T03:31:12.452Z,99613.13
2019-01-12T03:33:42.873Z,99614.82
2019-01-12T03:36:13.040Z,99612.53
2019-01-12T03:38:43.260Z,99610.39
2019-01-12T03:41:13.822Z,99605.55
2019-01-12T03:43:44.041Z,99610.30
2019-01-12T03:46:14.301Z,99609.41
2019-01-12T03:48:44.493Z,99606.34
2019-01-12T03:51:14.703Z,99604.61
2019-01-12T03:53:44.972Z,99604.15
2019-01-12T03:56:15.360Z,99608.93
2019-01-12T03:58:45.608Z,99602.72
2019-01-12T04:01:15.886Z,99603.12
2019-01-12T04:03:46.162Z,99593.41
2019-01-12T04:06:16.329Z,99588.55
2019-01-12T04:08:46.588Z,99597.77
2019-01-12T04:11:16.750Z,99598.70
2019-01-12T04:13:47.046Z,99597.82
2019-01-12T04:16:17.322Z,99598.22
2019-01-12T04:18:47.526Z,99595.61
2019-01-12T04:21:17.690Z,99590.41
2019-01-12T04:23:47.948Z,99592.13
2019-01-12T04:26:18.196Z,99597.84
2019-01-12T04:28:48.472Z,99592.13
2019-01-12T04:31:18.732Z,99588.17
2019-01-12T04:33:48.951Z,99593.88
2019-01-12T04:36:19.185Z,99593.35
2019-01-12T04:38:49.673Z,99588.91
2019-01-12T04:41:19.935Z,99592.41
2019-01-12T04:43:50.214Z,99579.70
2019-01-12T04:46:20.384Z,99581.02
2019-01-12T04:48:50.562Z,99578.80
2019-01-12T04:51:20.838Z,99568.67
2019-01-12T04:53:51.173Z,99573.76
2019-01-12T04:56:21.384Z,99576.95
2019-01-12T04:58:51.647Z,99571.70
2019-01-12T05:01:21.913Z,99575.63
2019-01-12T05:03:52.339Z,99573.02
2019-01-12T05:06:22.575Z,99569.95
2019-01-12T05:08:52.786Z,99567.75
2019-01-12T05:11:23.051Z,99566.87
2019-01-12T05:13:53.332Z,99566.87
2019-01-12T05:16:23.593Z,99567.23
2019-01-12T05:18:54.032Z,99562.33
2019-01-12T05:21:24.237Z,99562.42
2019-01-12T05:23:54.486Z,99560.59
2019-01-12T05:26:24.756Z,99561.91
2019-01-12T05:28:55.366Z,99557.92
2019-01-12T05:31:25.707Z,99553.97
2019-01-12T05:33:55.908Z,99553.94
2019-01-12T05:36:26.200Z,99550.30
2019-01-12T05:38:56.386Z,99553.36
2019-01-12T05:41:26.899Z,99556.88
2019-01-12T05:43:57.198Z,99558.27
2019-01-12T05:46:27.735Z,99559.21
2019-01-12T05:48:57.944Z,99571.44
2019-01-12T05:51:28.209Z,99571.86
2019-01-12T05:53:58.476Z,99579.46
2019-01-12T05:56:28.648Z,99574.68
2019-01-12T05:58:59.258Z,99578.17
2019-01-12T06:01:29.523Z,99576.00
2019-01-12T06:03:59.794Z,99580.80
2019-01-12T06:06:30.040Z,99578.66
2019-01-12T06:09:00.337Z,99585.19
2019-01-12T06:11:32.217Z,99582.55
2019-01-12T06:14:02.519Z,99580.77
2019-01-12T06:16:32.803Z,99579.86
2019-01-12T06:19:03.061Z,99577.22
2019-01-12T06:21:34.361Z,99585.47
2019-01-12T06:24:05.673Z,99580.66
2019-01-12T06:26:35.951Z,99582.83
2019-01-12T06:29:06.221Z,99582.83
2019-01-12T06:31:36.493Z,99585.86
2019-01-12T06:34:06.796Z,99583.59
2019-01-12T06:36:37.025Z,99586.30
2019-01-12T06:39:09.937Z,99586.23
2019-01-12T06:41:41.057Z,99593.03
2019-01-12T06:44:11.325Z,99596.09
2019-01-12T06:46:41.658Z,99593.86
2019-01-12T06:49:11.907Z,99596.41
2019-01-12T06:51:42.144Z,99590.30
2019-01-12T06:54:12.542Z,99588.93
2019-01-12T06:56:42.814Z,99591.96
2019-01-12T06:59:13.092Z,99588.50
2019-01-12T07:01:49.220Z,99586.20
2019-01-12T07:04:19.499Z,99589.23
2019-01-12T07:06:49.669Z,99577.81
2019-01-12T07:09:19.892Z,99577.28
2019-01-12T07:11:50.168Z,99574.25
2019-01-12T07:14:20.444Z,99579.92
2019-01-12T07:16:50.711Z,99573.34
2019-01-12T07:19:21.081Z,99568.06
2019-01-12T07:21:51.282Z,99574.16
2019-01-12T07:24:21.867Z,99581.23
2019-01-12T07:26:52.132Z,99565.43
2019-01-12T07:29:23.350Z,99571.53
2019-01-12T07:31:53.597Z,99572.45
2019-01-12T07:34:23.920Z,99567.58
2019-01-12T07:36:54.155Z,99578.55
2019-01-12T07:39:24.433Z,99584.13
2019-01-12T07:41:55.287Z,99587.58
2019-01-12T07:44:32.716Z,99580.93
2019-01-12T07:47:08.038Z,99582.62
2019-01-12T07:49:38.381Z,99590.46
2019-01-12T07:52:08.608Z,99588.78
2019-01-12T07:54:40.105Z,99598.77
2019-01-12T07:57:10.365Z,99598.77
2019-01-12T07:59:40.616Z,99606.58
2019-01-12T08:02:10.813Z,99608.82
2019-01-12T08:04:41.112Z,99611.36
2019-01-12T08:07:11.626Z,99611.39
2019-01-12T08:09:43.050Z,99614.83
2019-01-12T08:12:13.342Z,99615.72
2019-01-12T08:14:45.846Z,99623.59
2019-01-12T08:17:16.156Z,99620.59
2019-01-12T08:19:46.741Z,99621.23
2019-01-12T08:22:17.017Z,99626.84
2019-01-12T08:24:47.354Z,99624.11
2019-01-12T08:27:17.592Z,99621.11
2019-01-12T08:29:47.877Z,99624.14
2019-01-12T08:32:18.149Z,99620.55
2019-01-12T08:34:48.518Z,99622.66
2019-01-12T08:37:19.206Z,99624.71
2019-01-12T08:39:49.529Z,99629.40
2019-01-12T08:42:19.731Z,99630.66
2019-01-12T08:44:51.038Z,99632.80
2019-01-12T08:47:21.317Z,99627.39
2019-01-12T08:49:51.591Z,99633.36
2019-01-12T08:52:22.199Z,99634.88
2019-01-12T08:54:52.432Z,99630.40
2019-01-12T08:57:22.701Z,99634.72
2019-01-12T08:59:52.916Z,99627.20
2019-01-12T09:02:23.188Z,99628.75
2019-01-12T09:04:53.394Z,99631.16
2019-01-12T09:07:23.601Z,99628.28
2019-01-12T09:09:54.196Z,99628.65
2019-01-12T09:12:24.498Z,99625.52
2019-01-12T09:14:55.132Z,99628.02
2019-01-12T09:17:25.735Z,99616.75
2019-01-12T09:19:55.994Z,99628.50
2019-01-12T09:22:26.278Z,99616.84
2019-01-12T09:24:56.612Z,99616.98
2019-01-12T09:27:29.073Z,99614.09
2019-01-12T09:29:59.659Z,99613.06
2019-01-12T09:32:29.930Z,99614.84
2019-01-12T09:35:00.242Z,99617.09
2019-01-12T09:37:31.525Z,99613.98
2019-01-12T09:40:01.792Z,99614.59
2019-01-12T09:42:32.056Z,99604.55
2019-01-12T09:45:02.342Z,99608.60
2019-01-12T09:47:32.726Z,99600.75
2019-01-12T09:50:03.095Z,99606.17
2019-01-12T09:52:33.376Z,99611.03
2019-01-12T09:55:03.826Z,99612.70
2019-01-12T09:57:34.174Z,99616.20
2019-01-12T10:00:07.720Z,99618.85
2019-01-12T10:02:38.037Z,99625.06
2019-01-12T10:05:09.565Z,99620.75
2019-01-12T10:07:39.975Z,99611.16
2019-01-12T10:10:13.352Z,99614.30
2019-01-12T10:12:43.908Z,99612.94
2019-01-12T10:15:14.583Z,99600.53
2019-01-12T10:17:45.631Z,99607.53
2019-01-12T10:20:17.544Z,99604.42
2019-01-12T10:22:47.888Z,99610.34
2019-01-12T10:25:18.581Z,99608.67
2019-01-12T10:27:48.931Z,99603.03
2019-01-12T10:30:21.684Z,99605.87
2019-01-12T10:32:52.092Z,99603.03
2019-01-12T10:35:22.364Z,99604.08
2019-01-12T10:37:52.599Z,99602.67
2019-01-12T10:40:22.917Z,99602.67
2019-01-12T10:42:53.159Z,99600.05
2019-01-12T10:45:24.787Z,99589.11
2019-01-12T10:47:55.820Z,99586.73
2019-01-12T10:50:31.547Z,99582.50
2019-01-12T10:53:02.186Z,99589.25
2019-01-12T10:55:32.455Z,99586.00
2019-01-12T10:58:04.684Z,99587.48
2019-01-12T11:00:36.930Z,99582.44
2019-01-12T11:03:07.250Z,99578.29
2019-01-12T11:05:37.481Z,99571.62
2019-01-12T11:08:08.332Z,99577.25
2019-01-12T11:10:39.081Z,99570.08
2019-01-12T11:13:09.324Z,99561.43
2019-01-12T11:15:39.535Z,99561.90
2019-01-12T11:18:09.823Z,99550.84
2019-01-12T11:20:40.176Z,99540.40
2019-01-12T11:23:10.440Z,99542.53
2019-01-12T11:25:42.986Z,99534.95
2019-01-12T11:28:12.980Z,99533.66
2019-01-12T11:30:46.127Z,99525.69
2019-01-12T11:33:16.874Z,99519.38
2019-01-12T11:35:48.257Z,99520.00
2019-01-12T11:38:19.547Z,99514.05
2019-01-12T11:40:49.829Z,99514.44
2019-01-12T11:43:20.139Z,99505.00
2019-01-12T11:45:50.780Z,99504.20
2019-01-12T11:48:21.080Z,99496.80
2019-01-12T11:50:51.389Z,99485.93
2019-01-12T11:53:21.724Z,99491.73
2019-01-12T11:55:52.022Z,99493.11
2019-01-12T11:58:22.427Z,99472.91
2019-01-12T12:00:52.992Z,99475.12
2019-01-12T12:03:23.352Z,99465.45
2019-01-12T12:05:53.609Z,99450.98
2019-01-12T12:08:23.975Z,99452.31
2019-01-12T12:10:54.215Z,99451.55
2019-01-12T12:13:24.582Z,99446.66
2019-01-12T12:15:55.148Z,99449.12
2019-01-12T12:18:25.770Z,99447.67
2019-01-12T12:20:56.060Z,99442.52
2019-01-12T12:23:26.405Z,99452.08
2019-01-12T12:25:56.607Z,99450.81
2019-01-12T12:28:27.189Z,99440.06
2019-01-12T12:30:57.445Z,99434.63
2019-01-12T12:33:27.735Z,99432.91
2019-01-12T12:35:58.069Z,99427.88
2019-01-12T12:38:28.371Z,99414.51
2019-01-12T12:40:58.676Z,99408.64
2019-01-12T12:43:28.915Z,99400.97
2019-01-12T12:46:00.476Z,99387.45
2019-01-12T12:48:30.779Z,99372.42
2019-01-12T12:51:01.432Z,99364.71
2019-01-12T12:53:31.762Z,99355.86
2019-01-12T12:56:02.006Z,99344.28
2019-01-12T12:58:32.297Z,99338.55
2019-01-12T13:01:02.576Z,99325.77
2019-01-12T13:03:32.911Z,99328.91
2019-01-12T13:06:03.205Z,99321.50
2019-01-12T13:08:33.486Z,99316.38
2019-01-12T13:11:03.751Z,99329.49
2019-01-12T13:13:34.472Z,99321.66
2019-01-12T13:16:05.003Z,99322.26
2019-01-12T13:18:35.334Z,99326.70
2019-01-12T13:21:05.697Z,99337.47
2019-01-12T13:23:36.100Z,99332.98
2019-01-12T13:26:06.307Z,99326.81
2019-01-12T13:28:37.154Z,99336.63
2019-01-12T13:31:07.374Z,99326.11
2019-01-12T13:33:37.671Z,99320.80
2019-01-12T13:36:10.095Z,99313.70
2019-01-12T13:38:40.356Z,99314.56
2019-01-12T13:41:10.632Z,99311.33
2019-01-12T13:43:40.901Z,99314.73
2019-01-12T13:46:11.275Z,99319.44
2019-01-12T13:48:41.549Z,99329.26
2019-01-12T13:51:11.825Z,99334.03
2019-01-12T13:53:42.096Z,99340.81
2019-01-12T13:56:12.427Z,99347.28
2019-01-12T13:58:42.986Z,99346.80
2019-01-12T14:01:13.240Z,99356.69
2019-01-12T14:03:43.907Z,99354.84
2019-01-12T14:06:14.200Z,99367.25
2019-01-12T14:08:45.643Z,99363.56
2019-01-12T14:11:15.909Z,99361.30
2019-01-12T14:13:46.864Z,99355.60
2019-01-12T14:16:17.070Z,99355.95
2019-01-12T14:18:47.344Z,99358.73
2019-01-12T14:21:17.946Z,99344.91
2019-01-12T14:23:48.194Z,99349.86
2019-01-12T14:26:18.459Z,99350.97
2019-01-12T14:28:48.752Z,99350.67
2019-01-12T14:31:19.016Z,99354.50
2019-01-12T14:33:49.304Z,99347.34
2019-01-12T14:36:19.918Z,99337.20
2019-01-12T14:38:50.141Z,99330.59
2019-01-12T14:41:20.415Z,99320.81
2019-01-12T14:43:50.687Z,99320.28
2019-01-12T14:46:20.870Z,99318.17
2019-01-12T14:48:51.812Z,99312.07
2019-01-12T14:51:22.062Z,99318.85
2019-01-12T14:53:52.263Z,99317.00
2019-01-12T14:56:22.538Z,99323.63
2019-01-12T14:58:52.876Z,99313.06
2019-01-12T15:01:23.217Z,99318.64
2019-01-12T15:03:53.417Z,99309.81
2019-01-12T15:06:23.755Z,99298.27
2019-01-12T15:08:54.402Z,99293.01
2019-01-12T15:11:24.790Z,99291.77
2019-01-12T15:13:54.973Z,99287.86
2019-01-12T15:16:25.428Z,99280.53
2019-01-12T15:18:55.669Z,99286.95
2019-01-12T15:21:25.986Z,99289.78
2019-01-12T15:23:56.568Z,99288.89
2019-01-12T15:26:26.846Z,99284.53
2019-01-12T15:28:57.087Z,99285.16
2019-01-12T15:31:27.524Z,99273.98
2019-01-12T15:33:58.075Z,99279.47
2019-01-12T15:36:28.263Z,99270.81
2019-01-12T15:39:01.747Z,99261.37
2019-01-12T15:41:32.381Z,99261.89
2019-01-12T15:44:02.611Z,99255.60
2019-01-12T15:46:32.819Z,99253.02
2019-01-12T15:49:03.058Z,99248.98
2019-01-12T15:51:33.262Z,99251.58
2019-01-12T15:54:03.498Z,99247.14
2019-01-12T15:56:33.718Z,99240.25
2019-01-12T15:59:03.941Z,99234.72
2019-01-12T16:01:34.165Z,99228.34
2019-01-12T16:04:04.387Z,99238.92
2019-01-12T16:06:34.642Z,99229.28
2019-01-12T16:09:07.651Z,99232.91
2019-01-12T16:11:38.168Z,99245.14
2019-01-12T16:14:08.425Z,99249.64
2019-01-12T16:16:38.662Z,99260.03
2019-01-12T16:19:08.944Z,99257.85
2019-01-12T16:21:39.228Z,99263.39
2019-01-12T16:24:09.460Z,99267.03
2019-01-12T16:26:39.660Z,99267.83
2019-01-12T16:29:09.991Z,99268.10
2019-01-12T16:31:40.560Z,99256.95
2019-01-12T16:34:11.083Z,99243.52
2019-01-12T16:36:41.384Z,99239.87
2019-01-12T16:39:11.601Z,99235.42
2019-01-12T16:41:41.918Z,99228.37
2019-01-12T16:44:12.192Z,99242.31
2019-01-12T16:46:42.480Z,99236.55
2019-01-12T16:49:12.755Z,99230.39
2019-01-12T16:51:42.990Z,99231.34
2019-01-12T16:54:13.389Z,99222.72
2019-01-12T16:56:44.016Z,99216.09
2019-01-12T16:59:14.214Z,99220.72
2019-01-12T17:01:44.462Z,99221.09
2019-01-12T17:04:14.786Z,99211.45
2019-01-12T17:06:45.102Z,99205.20
2019-01-12T17:09:15.306Z,99207.06
2019-01-12T17:11:45.986Z,99201.23
2019-01-12T17:14:16.253Z,99201.02
2019-01-12T17:16:46.586Z,99197.60
2019-01-12T17:19:17.306Z,99194.20
2019-01-12T17:21:47.564Z,99188.90
2019-01-12T17:24:17.840Z,99194.31
2019-01-12T17:26:48.099Z,99190.22
2019-01-12T17:29:18.325Z,99188.22
2019-01-12T17:31:48.929Z,99183.40
2019-01-12T17:34:19.459Z,99177.41
2019-01-12T17:36:49.929Z,99179.90
2019-01-12T17:39:20.159Z,99175.83
2019-01-12T17:41:50.442Z,99164.02
2019-01-12T17:44:21.309Z,99153.31
2019-01-12T17:46:51.660Z,99150.51
2019-01-12T17:49:21.919Z,99145.41
2019-01-12T17:51:52.145Z,99144.08
2019-01-12T17:54:22.950Z,99132.16
2019-01-12T17:56:53.252Z,99133.07
2019-01-12T17:59:23.607Z,99132.00
2019-01-12T18:01:53.963Z,99138.37
2019-01-12T18:04:24.169Z,99137.14
2019-01-12T18:06:54.411Z,99132.31
2019-01-12T18:09:24.699Z,99118.97
2019-01-12T18:11:54.941Z,99109.79
2019-01-12T18:14:25.200Z,99110.70
2019-01-12T18:16:55.511Z,99082.88
2019-01-12T18:19:25.782Z,99074.41
2019-01-12T18:21:56.152Z,99069.64
2019-01-12T18:24:31.344Z,99072.59
2019-01-12T18:27:01.582Z,99070.27
2019-01-12T18:29:32.168Z,99065.99
2019-01-12T18:32:02.438Z,99063.55
2019-01-12T18:34:32.736Z,99064.26
2019-01-12T18:37:02.979Z,99050.70
2019-01-12T18:39:33.381Z,99056.55
2019-01-12T18:42:04.294Z,99060.16
2019-01-12T18:44:34.605Z,99054.90
2019-01-12T18:47:04.917Z,99056.70
2019-01-12T18:49:35.360Z,99059.52
2019-01-12T18:52:05.684Z,99056.55
2019-01-12T18:54:36.290Z,99049.45
2019-01-12T18:57:06.553Z,99045.70
2019-01-12T18:59:36.785Z,99043.30
2019-01-12T19:02:07.174Z,99038.70
2019-01-12T19:04:37.440Z,99037.94
2019-01-12T19:07:07.738Z,99036.92
2019-01-12T19:09:38.407Z,99028.80
2019-01-12T19:12:09.195Z,99046.57
2019-01-12T19:14:39.464Z,99041.19
2019-01-12T19:17:10.198Z,99040.57
2019-01-12T19:19:40.491Z,99037.84
2019-01-12T19:22:11.151Z,99037.60
2019-01-12T19:24:41.513Z,99037.20
2019-01-12T19:27:11.803Z,99035.73
2019-01-12T19:29:42.181Z,99034.63
2019-01-12T19:32:12.481Z,99034.63
2019-01-12T19:34:42.770Z,99032.45
2019-01-12T19:37:13.048Z,99030.75
2019-01-12T19:39:43.376Z,99023.30
2019-01-12T19:42:13.616Z,99019.27
2019-01-12T19:44:44.865Z,99012.55
2019-01-12T19:47:15.253Z,99018.38
2019-01-12T19:49:45.544Z,99011.55
2019-01-12T19:52:16.854Z,99003.55
2019-01-12T19:54:47.126Z,98994.28
2019-01-12T19:57:17.358Z,98999.03
2019-01-12T19:59:47.730Z,98993.64
2019-01-12T20:02:18.053Z,98984.38
2019-01-12T20:04:48.387Z,98998.47
2019-01-12T20:07:18.769Z,98995.66
2019-01-12T20:09:49.066Z,98997.55
2019-01-12T20:12:19.303Z,99003.70
2019-01-12T20:14:49.621Z,99011.17
2019-01-12T20:17:19.860Z,99010.25
2019-01-12T20:19:50.154Z,99011.39
2019-01-12T20:22:20.612Z,99012.34
2019-01-12T20:24:50.898Z,99002.94
2019-01-12T20:27:21.176Z,99002.31
2019-01-12T20:29:51.479Z,99002.00
2019-01-12T20:33:20.754Z,98988.20
2019-01-12T20:36:50.263Z,99003.55
2019-01-12T20:39:58.122Z,98992.01
2019-01-12T20:43:02.424Z,98990.91
2019-01-12T20:46:28.960Z,98993.70
2019-01-12T20:49:08.124Z,98996.41
2019-01-12T20:52:15.398Z,99000.06
2019-01-12T20:55:17.346Z,98999.59
2019-01-12T20:58:26.378Z,99005.36
2019-01-12T21:01:33.392Z,98989.80
2019-01-12T21:04:32.637Z,98978.27
2019-01-12T21:07:43.879Z,98991.86
2019-01-12T21:10:48.401Z,98989.31
2019-01-12T21:14:03.149Z,98966.72
2019-01-12T21:16:43.129Z,98958.84
2019-01-12T21:19:13.461Z,98950.84
2019-01-12T21:21:44.679Z,98949.37
2019-01-12T21:24:14.991Z,98938.72
2019-01-12T21:26:45.301Z,98938.72
2019-01-12T21:29:16.628Z,98933.27
2019-01-12T21:31:46.922Z,98939.73
2019-01-12T21:34:17.239Z,98943.59
2019-01-12T21:36:47.489Z,98947.57
2019-01-12T21:39:17.725Z,98933.49
2019-01-12T21:41:48.183Z,98937.56
2019-01-12T21:44:18.389Z,98928.52
2019-01-12T21:46:48.677Z,98918.63
2019-01-12T21:49:19.239Z,98921.16
2019-01-12T21:51:49.520Z,98920.90
2019-01-12T21:54:19.823Z,98913.75
2019-01-12T21:56:50.043Z,98913.75
2019-01-12T21:59:20.324Z,98907.35
2019-01-12T22:01:50.687Z,98913.75
2019-01-12T22:04:21.136Z,98907.45
2019-01-12T22:06:51.377Z,98902.30
2019-01-12T22:09:21.602Z,98892.98
2019-01-12T22:11:51.841Z,98883.17
2019-01-12T22:14:22.115Z,98884.88
2019-01-12T22:16:52.722Z,98878.88
2019-01-12T22:19:23.079Z,98883.80
2019-01-12T22:21:53.448Z,98873.27
2019-01-12T22:24:23.771Z,98872.42
2019-01-12T22:26:54.014Z,98876.55
2019-01-12T22:29:24.262Z,98856.77
2019-01-12T22:31:54.547Z,98854.05
2019-01-12T22:34:24.821Z,98852.48
2019-01-12T22:36:55.095Z,98849.77
2019-01-12T22:39:25.363Z,98851.78
2019-01-12T22:41:55.641Z,98847.64
2019-01-12T22:44:25.950Z,98841.03
2019-01-12T22:46:56.201Z,98845.23
2019-01-12T22:49:26.460Z,98836.98
2019-01-12T22:51:56.728Z,98841.71
2019-01-12T22:54:27.082Z,98829.86
2019-01-12T22:56:57.388Z,98831.80
2019-01-12T22:59:27.662Z,98816.45
2019-01-12T23:02:03.887Z,98818.14
2019-01-12T23:04:36.055Z,98816.69
2019-01-12T23:07:11.371Z,98808.80
2019-01-12T23:09:40.113Z,98808.27
2019-01-12T23:12:11.101Z,98804.16
2019-01-12T23:14:41.379Z,98792.00
2019-01-12T23:17:11.744Z,98791.45
2019-01-12T23:19:42.026Z,98786.36
2019-01-12T23:22:13.370Z,98790.51
2019-01-12T23:24:43.592Z,98781.06
2019-01-12T23:27:13.891Z,98791.52
2019-01-12T23:29:44.141Z,98792.37
2019-01-12T23:32:14.454Z,98788.35
2019-01-12T23:34:44.798Z,98780.95
2019-01-12T23:37:15.075Z,98774.13
2019-01-12T23:39:45.377Z,98771.25
2019-01-12T23:42:15.620Z,98770.64
2019-01-12T23:44:45.882Z,98777.15
2019-01-12T23:47:16.194Z,98774.67
2019-01-12T23:49:46.577Z,98763.59
2019-01-12T23:52:16.828Z,98759.19
2019-01-12T23:54:47.144Z,98753.97
2019-01-12T23:57:17.370Z,98764.94
2019-01-12T23:59:47.910Z,98756.61
